Time;durP1;ratioP1;P1;durP2;ratioP2;P2;SDS_P1;SDS_P2;PMS_P1;PMS_P2;Temp;Humidity;BMP_temperature;BMP_pressure;BME280_temperature;BME280_humidity;BME280_pressure;Samples;Min_cycle;Max_cycle;Signal;HPM_P1;HPM_P2
2022/11/05 00:10:02;;;;;;;;;9.25;5.00;;;;;;;;5031341;28;11467;-73
2022/11/05 00:17:56;;;;;;;;;6.00;6.00;;;;;;;;5030973;28;11473;-73
2022/11/05 00:20:21;;;;;;;;;10.00;5.00;;;;;;;;5030931;28;11512;-73
2022/11/05 00:25:30;;;;;;;;;11.50;7.00;;;;;;;;5030721;28;8855;-73
2022/11/05 00:27:59;;;;;;;;;16.00;10.00;;;;;;;;5030991;28;11525;-73
2022/11/05 00:30:24;;;;;;;;;10.00;7.00;;;;;;;;5031061;28;8788;-73
2022/11/05 00:32:50;;;;;;;;;10.25;7.00;;;;;;;;5030329;28;11527;-73
2022/11/05 00:35:20;;;;;;;;;6.50;6.50;;;;;;;;5030815;28;8795;-73
2022/11/05 00:37:45;;;;;;;;;10.50;7.50;;;;;;;;5030763;28;8889;-73
2022/11/05 00:40:11;;;;;;;;;8.00;6.75;;;;;;;;5030594;28;12211;-74
2022/11/05 00:45:22;;;;;;;;;11.25;8.00;;;;;;;;5030747;28;8823;-73
2022/11/05 00:50:31;;;;;;;;;6.00;6.00;;;;;;;;5030900;28;8792;-73
2022/11/05 00:52:59;;;;;;;;;7.25;7.00;;;;;;;;5030864;28;12331;-73
2022/11/05 00:55:24;;;;;;;;;8.75;7.00;;;;;;;;5030666;28;9754;-73
2022/11/05 00:57:49;;;;;;;;;8.00;8.00;;;;;;;;5028979;28;11613;-73
2022/11/05 01:00:15;;;;;;;;;7.00;6.00;;;;;;;;5030279;28;8876;-73
2022/11/05 01:02:40;;;;;;;;;8.25;7.50;;;;;;;;5030244;28;8858;-72
2022/11/05 01:05:05;;;;;;;;;7.75;5.50;;;;;;;;5030645;28;8870;-72
2022/11/05 01:07:31;;;;;;;;;12.75;10.75;;;;;;;;5030384;28;8792;-73
2022/11/05 01:09:56;;;;;;;;;11.50;7.25;;;;;;;;5030532;28;8894;-72
2022/11/05 01:12:21;;;;;;;;;11.50;8.50;;;;;;;;5030382;28;8803;-72
2022/11/05 01:14:46;;;;;;;;;6.75;6.75;;;;;;;;5029868;28;8826;-73
2022/11/05 01:17:12;;;;;;;;;10.25;8.50;;;;;;;;5030217;28;8865;-72
2022/11/05 01:19:38;;;;;;;;;9.75;6.50;;;;;;;;5030278;28;8816;-72
2022/11/05 01:22:03;;;;;;;;;12.75;8.00;;;;;;;;5030333;28;8826;-72
2022/11/05 01:24:29;;;;;;;;;7.00;7.00;;;;;;;;5030337;28;11632;-71
2022/11/05 01:26:54;;;;;;;;;9.25;7.25;;;;;;;;5030322;28;8807;-72
2022/11/05 01:29:19;;;;;;;;;5.50;3.00;;;;;;;;5030363;28;8804;-72
2022/11/05 01:31:45;;;;;;;;;6.50;5.75;;;;;;;;5028349;28;9624;-71
2022/11/05 01:34:10;;;;;;;;;7.00;5.00;;;;;;;;5030281;28;8808;-72
2022/11/05 01:36:35;;;;;;;;;7.25;6.25;;;;;;;;5030331;28;8818;-72
2022/11/05 01:39:00;;;;;;;;;6.00;5.00;;;;;;;;5030312;28;8901;-72
2022/11/05 01:41:26;;;;;;;;;6.50;3.00;;;;;;;;5030110;28;8792;-72
2022/11/05 01:43:53;;;;;;;;;2.00;2.00;;;;;;;;5030162;28;8804;-72
2022/11/05 01:46:21;;;;;;;;;6.50;2.00;;;;;;;;5029696;28;8843;-73
2022/11/05 01:48:48;;;;;;;;;5.00;2.75;;;;;;;;5030254;28;12520;-73
2022/11/05 01:51:14;;;;;;;;;6.00;5.00;;;;;;;;5054201;22;11487;-71
2022/11/05 01:53:42;;;;;;;;;2.00;2.00;;;;;;;;5028257;28;11588;-70
2022/11/05 01:56:11;;;;;;;;;8.75;5.00;;;;;;;;5028881;28;11567;-70
2022/11/05 01:58:43;;;;;;;;;1.75;1.50;;;;;;;;5028778;28;11576;-71
2022/11/05 02:01:08;;;;;;;;;5.25;3.00;;;;;;;;5028678;28;11463;-71
2022/11/05 02:03:34;;;;;;;;;7.00;6.00;;;;;;;;5027050;28;11499;-71
2022/11/05 02:05:59;;;;;;;;;3.75;2.00;;;;;;;;5028410;28;8824;-70
2022/11/05 02:08:33;;;;;;;;;2.25;2.00;;;;;;;;5028487;28;8808;-71
2022/11/05 02:10:58;;;;;;;;;5.00;2.50;;;;;;;;5028694;28;12313;-71
2022/11/05 02:13:24;;;;;;;;;2.50;2.00;;;;;;;;5046121;28;11608;-69
2022/11/05 02:16:06;;;;;;;;;7.00;3.00;;;;;;;;5030854;28;8788;-71
2022/11/05 02:18:52;;;;;;;;;2.75;2.75;;;;;;;;5032302;28;8776;-69
2022/11/05 02:21:17;;;;;;;;;4.00;3.00;;;;;;;;5029865;28;11578;-72
2022/11/05 02:23:51;;;;;;;;;6.75;4.00;;;;;;;;5031358;28;11439;-72
2022/11/05 02:26:34;;;;;;;;;6.00;4.00;;;;;;;;5031732;28;8823;-71
2022/11/05 02:29:09;;;;;;;;;1.75;1.75;;;;;;;;5032061;28;11479;-71
2022/11/05 02:32:00;;;;;;;;;4.50;2.50;;;;;;;;5031763;28;12248;-72
2022/11/05 02:34:49;;;;;;;;;2.00;2.00;;;;;;;;5027365;28;11501;-72
2022/11/05 02:37:14;;;;;;;;;2.50;1.25;;;;;;;;5031875;28;11545;-72
2022/11/05 02:39:57;;;;;;;;;5.25;2.25;;;;;;;;5031697;28;11683;-71
2022/11/05 02:42:23;;;;;;;;;3.00;3.00;;;;;;;;5030332;28;8792;-72
2022/11/05 02:44:55;;;;;;;;;3.50;2.00;;;;;;;;5031117;28;11445;-72
2022/11/05 02:47:41;;;;;;;;;2.00;2.00;;;;;;;;5031701;28;8799;-71
2022/11/05 02:50:16;;;;;;;;;4.00;3.00;;;;;;;;5031631;28;12208;-72
2022/11/05 02:53:00;;;;;;;;;3.50;3.00;;;;;;;;5031734;28;11484;-72
2022/11/05 02:55:28;;;;;;;;;3.25;2.00;;;;;;;;5031785;28;12217;-72
2022/11/05 02:57:53;;;;;;;;;4.00;2.25;;;;;;;;5030269;28;11498;-72
2022/11/05 03:00:38;;;;;;;;;3.00;2.00;;;;;;;;5031317;28;11490;-72
2022/11/05 03:03:04;;;;;;;;;6.50;3.00;;;;;;;;5031026;28;8822;-72
2022/11/05 03:05:38;;;;;;;;;2.00;2.00;;;;;;;;5031432;28;11541;-72
2022/11/05 03:08:09;;;;;;;;;3.00;2.00;;;;;;;;5031488;28;11450;-72
2022/11/05 03:10:38;;;;;;;;;6.00;5.00;;;;;;;;5029911;28;12351;-72
2022/11/05 03:13:21;;;;;;;;;2.50;2.50;;;;;;;;5031146;28;11542;-72
2022/11/05 03:15:56;;;;;;;;;5.50;5.00;;;;;;;;5030953;28;11566;-72
2022/11/05 03:18:44;;;;;;;;;4.25;2.00;;;;;;;;5030516;28;12280;-71
2022/11/05 03:21:22;;;;;;;;;7.00;5.00;;;;;;;;5022772;28;12274;-71
2022/11/05 03:23:57;;;;;;;;;3.00;3.00;;;;;;;;5031017;28;11673;-72
2022/11/05 03:26:28;;;;;;;;;3.00;1.00;;;;;;;;5030843;28;11517;-71
2022/11/05 03:28:57;;;;;;;;;2.00;2.00;;;;;;;;5030988;28;11473;-71
2022/11/05 03:31:24;;;;;;;;;2.75;2.75;;;;;;;;5030702;28;11565;-74
2022/11/05 03:33:50;;;;;;;;;6.75;3.00;;;;;;;;5030715;28;11453;-72
2022/11/05 03:36:22;;;;;;;;;3.00;3.00;;;;;;;;5030246;28;11470;-72
2022/11/05 03:38:49;;;;;;;;;2.50;2.00;;;;;;;;5030450;28;11524;-71
2022/11/05 03:41:14;;;;;;;;;2.00;2.00;;;;;;;;5029069;28;11558;-71
2022/11/05 03:43:42;;;;;;;;;5.00;3.00;;;;;;;;5030598;28;11464;-72
2022/11/05 03:46:09;;;;;;;;;3.00;2.00;;;;;;;;5030574;28;9570;-72
2022/11/05 03:48:39;;;;;;;;;2.00;1.75;;;;;;;;5030435;28;11470;-72
2022/11/05 03:51:12;;;;;;;;;6.50;4.50;;;;;;;;5030867;28;11456;-72
2022/11/05 03:53:42;;;;;;;;;5.00;5.00;;;;;;;;5030472;28;11500;-72
2022/11/05 03:56:12;;;;;;;;;5.25;5.00;;;;;;;;5030067;28;11512;-72
2022/11/05 03:58:41;;;;;;;;;6.25;6.00;;;;;;;;5030452;28;11475;-72
2022/11/05 04:01:07;;;;;;;;;5.25;4.50;;;;;;;;5030293;28;11493;-72
2022/11/05 04:03:35;;;;;;;;;9.00;6.00;;;;;;;;5028530;28;11485;-72
2022/11/05 04:14:12;;;;;;;;;10.00;8.00;;;;;;;;5029508;28;11450;-72
2022/11/05 04:24:07;;;;;;;;;8.75;7.25;;;;;;;;5029893;28;8792;-72
2022/11/05 04:24:49;;;;;;;;;11.25;8.50;;;;;;;;5029759;28;11462;-72
2022/11/05 04:27:15;;;;;;;;;10.25;7.50;;;;;;;;5029725;28;11514;-72
2022/11/05 04:32:24;;;;;;;;;8.00;7.00;;;;;;;;5029449;28;8776;-71
2022/11/05 04:34:49;;;;;;;;;15.75;9.50;;;;;;;;5029036;28;11605;-72
2022/11/05 04:37:14;;;;;;;;;10.50;8.00;;;;;;;;5029473;28;8788;-72
2022/11/05 04:39:40;;;;;;;;;10.25;10.00;;;;;;;;5028160;28;8877;-72
2022/11/05 04:42:05;;;;;;;;;12.00;8.00;;;;;;;;5029525;28;8803;-72
2022/11/05 04:44:30;;;;;;;;;11.00;10.00;;;;;;;;5029360;28;8808;-71
2022/11/05 13:31:22;;;;;;;;;0.25;0.00;;;;;;;;5104459;27;14227;-71
2022/11/05 13:33:49;;;;;;;;;0.00;0.00;;;;;;;;5104286;27;9932;-72
2022/11/05 13:39:10;;;;;;;;;0.00;0.00;;;;;;;;5047051;28;10112;-73
2022/11/05 13:41:46;;;;;;;;;0.00;0.00;;;;;;;;5051584;28;10056;-75
2022/11/05 13:44:24;;;;;;;;;0.00;0.00;;;;;;;;5066419;28;10175;-70
2022/11/05 13:47:01;;;;;;;;;0.00;0.00;;;;;;;;5048708;28;11223;-69
2022/11/05 13:49:49;;;;;;;;;0.00;0.00;;;;;;;;5074519;28;10240;-70
2022/11/05 13:52:33;;;;;;;;;3.00;1.00;;;;;;;;5058560;28;10277;-70
2022/11/05 13:55:13;;;;;;;;;6.50;5.00;;;;;;;;5050588;28;10482;-71
2022/11/05 13:57:50;;;;;;;;;10.50;10.25;;;;;;;;5066025;28;10716;-70
2022/11/05 14:00:20;;;;;;;;;0.00;0.00;;;;;;;;5065996;28;11209;-70
2022/11/05 14:02:48;;;;;;;;;0.00;0.00;;;;;;;;5065785;28;10391;-70
2022/11/05 14:05:28;;;;;;;;;1.00;1.00;;;;;;;;5058636;28;10328;-69
2022/11/05 14:07:59;;;;;;;;;1.00;1.00;;;;;;;;5049523;28;10658;-70
2022/11/05 14:10:34;;;;;;;;;1.00;0.00;;;;;;;;5045945;28;11186;-70
2022/11/05 14:13:04;;;;;;;;;0.00;0.00;;;;;;;;5046120;28;10432;-70
2022/11/05 14:15:30;;;;;;;;;1.00;0.00;;;;;;;;5058885;28;10283;-70
2022/11/05 14:18:01;;;;;;;;;0.00;0.00;;;;;;;;5065411;28;11352;-70
2022/11/05 14:20:30;;;;;;;;;0.00;0.00;;;;;;;;5065365;28;10424;-69
2022/11/05 14:23:13;;;;;;;;;0.00;0.00;;;;;;;;5066318;28;11080;-70
2022/11/05 14:25:39;;;;;;;;;0.00;0.00;;;;;;;;5066710;28;10393;-70
2022/11/05 14:28:24;;;;;;;;;0.00;0.00;;;;;;;;5065589;28;10303;-70
2022/11/05 14:30:50;;;;;;;;;0.00;0.00;;;;;;;;5064958;28;8829;-70
2022/11/05 14:33:35;;;;;;;;;2.50;0.00;;;;;;;;5065325;28;10251;-70
2022/11/05 14:36:19;;;;;;;;;0.00;0.00;;;;;;;;5063346;28;8943;-71
2022/11/05 14:38:46;;;;;;;;;0.00;0.00;;;;;;;;5065273;28;10462;-70
2022/11/05 14:41:11;;;;;;;;;0.00;0.00;;;;;;;;5059901;28;10335;-69
2022/11/05 14:43:43;;;;;;;;;0.00;0.00;;;;;;;;5032585;22;10713;-71
2022/11/05 14:46:08;;;;;;;;;0.00;0.00;;;;;;;;5031568;28;8811;-72
2022/11/05 14:48:42;;;;;;;;;0.00;0.00;;;;;;;;5031866;28;10266;-72
2022/11/05 14:51:27;;;;;;;;;0.00;0.00;;;;;;;;5018401;28;8953;-71
2022/11/05 14:54:02;;;;;;;;;0.00;0.00;;;;;;;;5012609;28;10151;-70
2022/11/05 14:56:28;;;;;;;;;0.00;0.00;;;;;;;;5013485;28;10261;-71
2022/11/05 14:59:13;;;;;;;;;0.00;0.00;;;;;;;;5011060;28;11003;-72
2022/11/05 15:01:38;;;;;;;;;0.00;0.00;;;;;;;;5012723;28;8945;-69
2022/11/05 15:04:22;;;;;;;;;0.00;0.00;;;;;;;;5011845;28;10320;-70
2022/11/05 15:07:02;;;;;;;;;0.00;0.00;;;;;;;;5011793;28;8794;-69
2022/11/05 15:09:31;;;;;;;;;10.00;10.00;;;;;;;;5006309;28;10592;-70
2022/11/05 15:12:01;;;;;;;;;0.00;0.00;;;;;;;;5012453;28;11201;-70
2022/11/05 15:14:30;;;;;;;;;0.00;0.00;;;;;;;;5015585;28;10632;-70
2022/11/05 15:16:58;;;;;;;;;0.00;0.00;;;;;;;;5012987;28;10257;-69
2022/11/05 15:19:24;;;;;;;;;0.00;0.00;;;;;;;;5010640;28;10506;-70
2022/11/05 15:21:49;;;;;;;;;0.00;0.00;;;;;;;;5012173;28;10382;-70
2022/11/05 15:24:17;;;;;;;;;0.00;0.00;;;;;;;;5011952;28;8815;-71
2022/11/05 15:26:57;;;;;;;;;0.00;0.00;;;;;;;;5012326;28;8860;-69
2022/11/05 15:29:24;;;;;;;;;0.00;0.00;;;;;;;;5010537;28;10460;-69
2022/11/05 15:31:50;;;;;;;;;0.00;0.00;;;;;;;;5012084;28;10485;-70
2022/11/05 15:34:21;;;;;;;;;0.00;0.00;;;;;;;;5010409;28;10581;-70
2022/11/05 15:36:48;;;;;;;;;0.00;0.00;;;;;;;;5011602;28;8825;-71
2022/11/05 15:39:32;;;;;;;;;0.00;0.00;;;;;;;;5009628;28;10716;-72
2022/11/05 15:42:00;;;;;;;;;0.00;0.00;;;;;;;;5012204;28;10723;-72
2022/11/05 15:44:25;;;;;;;;;0.00;0.00;;;;;;;;5014784;28;10749;-72
2022/11/05 15:47:05;;;;;;;;;0.00;0.00;;;;;;;;5032103;28;11502;-71
2022/11/05 15:49:31;;;;;;;;;0.00;0.00;;;;;;;;5020009;28;8846;-73
2022/11/05 15:51:56;;;;;;;;;0.00;0.00;;;;;;;;5011195;28;10704;-72
2022/11/05 15:54:21;;;;;;;;;0.00;0.00;;;;;;;;5011228;28;8802;-71
2022/11/05 15:56:51;;;;;;;;;0.00;0.00;;;;;;;;5012246;28;8825;-72
2022/11/05 15:59:18;;;;;;;;;2.00;1.00;;;;;;;;5011102;28;8999;-71
2022/11/05 16:01:48;;;;;;;;;0.00;0.00;;;;;;;;5010097;28;11138;-70
2022/11/05 16:04:17;;;;;;;;;0.50;0.00;;;;;;;;5026984;28;11028;-70
2022/11/05 16:06:44;;;;;;;;;0.00;0.00;;;;;;;;5011840;28;10984;-70
2022/11/05 16:09:38;;;;;;;;;0.00;0.00;;;;;;;;5009973;28;10628;-70
2022/11/05 16:12:19;;;;;;;;;0.00;0.00;;;;;;;;5028206;28;10762;-70
2022/11/05 16:14:55;;;;;;;;;0.00;0.00;;;;;;;;5035700;28;10841;-71
2022/11/05 16:17:21;;;;;;;;;0.25;0.00;;;;;;;;5048605;28;10962;-71
2022/11/05 16:19:47;;;;;;;;;1.00;0.00;;;;;;;;5034115;28;11968;-72
2022/11/05 16:22:13;;;;;;;;;0.00;0.00;;;;;;;;5028522;28;11003;-71
2022/11/05 16:24:38;;;;;;;;;0.00;0.00;;;;;;;;5028875;28;9732;-71
2022/11/05 16:27:04;;;;;;;;;0.00;0.00;;;;;;;;5028611;28;8793;-70
2022/11/05 16:29:29;;;;;;;;;0.00;0.00;;;;;;;;5025918;28;9035;-71
2022/11/05 16:31:55;;;;;;;;;0.00;0.00;;;;;;;;5014091;28;9785;-70
2022/11/05 16:34:25;;;;;;;;;0.00;0.00;;;;;;;;5002444;28;9536;-69
2022/11/05 16:36:53;;;;;;;;;0.00;0.00;;;;;;;;4997327;28;11010;-70
2022/11/05 16:39:18;;;;;;;;;0.00;0.00;;;;;;;;4979610;28;11640;-71
2022/11/05 16:41:43;;;;;;;;;0.00;0.00;;;;;;;;5008549;28;11177;-70
2022/11/05 16:44:08;;;;;;;;;0.00;0.00;;;;;;;;5008357;28;10145;-73
2022/11/05 16:46:36;;;;;;;;;0.00;0.00;;;;;;;;5005782;28;8857;-73
2022/11/05 16:49:02;;;;;;;;;0.00;0.00;;;;;;;;4970979;28;9433;-72
2022/11/05 16:51:27;;;;;;;;;0.00;0.00;;;;;;;;4971736;28;10963;-72
2022/11/05 16:53:52;;;;;;;;;0.00;0.00;;;;;;;;4971824;28;8849;-73
2022/11/05 16:56:20;;;;;;;;;0.00;0.00;;;;;;;;4972024;28;8804;-72
2022/11/05 16:58:46;;;;;;;;;0.00;0.00;;;;;;;;4969952;28;9668;-72
2022/11/05 17:01:16;;;;;;;;;0.00;0.00;;;;;;;;4985505;28;11162;-72
2022/11/05 17:03:42;;;;;;;;;0.00;0.00;;;;;;;;4985830;28;11466;-72
2022/11/05 17:06:07;;;;;;;;;0.00;0.00;;;;;;;;4971507;28;11555;-71
2022/11/05 17:08:33;;;;;;;;;0.00;0.00;;;;;;;;4969837;28;8887;-72
2022/11/05 17:10:58;;;;;;;;;0.00;0.00;;;;;;;;4971035;28;8867;-72
2022/11/05 17:13:24;;;;;;;;;1.00;0.00;;;;;;;;4971396;28;11098;-72
2022/11/05 17:15:50;;;;;;;;;0.00;0.00;;;;;;;;4971218;28;8839;-72
2022/11/05 17:18:15;;;;;;;;;0.00;0.00;;;;;;;;4971679;28;8815;-72
2022/11/05 17:20:40;;;;;;;;;1.00;1.00;;;;;;;;4984224;28;11476;-73
2022/11/05 17:23:07;;;;;;;;;0.50;0.50;;;;;;;;4971670;28;8793;-71
2022/11/05 17:25:32;;;;;;;;;1.00;0.00;;;;;;;;4970360;28;8837;-71
2022/11/05 17:27:58;;;;;;;;;1.00;1.00;;;;;;;;4969879;28;11453;-73
2022/11/05 17:30:24;;;;;;;;;0.25;0.00;;;;;;;;4968169;28;8950;-72
2022/11/05 17:32:49;;;;;;;;;0.00;0.00;;;;;;;;4971502;28;8823;-72
2022/11/05 17:35:15;;;;;;;;;0.00;0.00;;;;;;;;4971083;28;8827;-71
2022/11/05 17:37:40;;;;;;;;;0.00;0.00;;;;;;;;4986243;28;8826;-71
2022/11/05 17:40:07;;;;;;;;;0.00;0.00;;;;;;;;4969645;28;8838;-71
2022/11/05 17:42:32;;;;;;;;;0.00;0.00;;;;;;;;4971012;28;8954;-72
2022/11/05 17:44:57;;;;;;;;;0.00;0.00;;;;;;;;4970950;28;11656;-73
2022/11/05 17:47:22;;;;;;;;;0.75;0.00;;;;;;;;4986226;28;8828;-70
2022/11/05 17:49:48;;;;;;;;;0.00;0.00;;;;;;;;4968932;28;8949;-70
2022/11/05 17:52:13;;;;;;;;;0.00;0.00;;;;;;;;4971242;28;8850;-75
2022/11/05 17:54:39;;;;;;;;;0.00;0.00;;;;;;;;4969839;28;8823;-74
2022/11/05 17:57:04;;;;;;;;;1.50;1.00;;;;;;;;4971077;28;8812;-74
2022/11/05 17:59:30;;;;;;;;;0.00;0.00;;;;;;;;4969241;28;8820;-73
2022/11/05 18:01:56;;;;;;;;;1.00;0.75;;;;;;;;4970667;28;8831;-73
2022/11/05 18:04:21;;;;;;;;;0.50;0.50;;;;;;;;4971080;28;8858;-73
2022/11/05 18:06:46;;;;;;;;;0.00;0.00;;;;;;;;4971133;28;8894;-74
2022/11/05 18:09:12;;;;;;;;;2.25;0.25;;;;;;;;4969166;28;8857;-72
2022/11/05 18:11:38;;;;;;;;;0.75;0.75;;;;;;;;4970610;28;8851;-73
2022/11/05 18:14:03;;;;;;;;;2.00;1.00;;;;;;;;4985709;28;8917;-72
2022/11/05 18:16:29;;;;;;;;;1.00;1.00;;;;;;;;4972114;28;8838;-73
2022/11/05 18:18:54;;;;;;;;;2.00;2.00;;;;;;;;4972823;28;8824;-70
2022/11/05 18:21:20;;;;;;;;;1.75;0.50;;;;;;;;4974265;28;8823;-71
2022/11/05 18:23:45;;;;;;;;;1.50;1.50;;;;;;;;4974556;28;8843;-74
2022/11/05 18:26:11;;;;;;;;;0.00;0.00;;;;;;;;4974545;28;8811;-76
2022/11/05 18:28:37;;;;;;;;;1.00;1.00;;;;;;;;4972293;28;8808;-73
2022/11/05 18:31:02;;;;;;;;;2.00;2.00;;;;;;;;4973440;28;9057;-71
2022/11/05 18:33:28;;;;;;;;;0.75;0.25;;;;;;;;4973157;28;8848;-73
2022/11/05 18:35:53;;;;;;;;;1.00;1.00;;;;;;;;4973363;28;8950;-71
2022/11/05 18:38:18;;;;;;;;;1.50;1.00;;;;;;;;4973550;28;8831;-70
2022/11/05 18:40:43;;;;;;;;;0.50;0.25;;;;;;;;4972850;28;8813;-71
2022/11/05 18:43:09;;;;;;;;;1.00;1.00;;;;;;;;4977748;23;8894;-68
2022/11/05 18:45:34;;;;;;;;;2.00;1.00;;;;;;;;4953594;28;8834;-68
2022/11/05 18:48:00;;;;;;;;;1.00;1.00;;;;;;;;4953813;28;8817;-69
2022/11/05 18:50:25;;;;;;;;;1.00;1.00;;;;;;;;4951153;28;8858;-66
2022/11/05 18:52:50;;;;;;;;;2.75;1.00;;;;;;;;4935212;28;8861;-68
2022/11/05 18:55:15;;;;;;;;;1.75;1.25;;;;;;;;4934311;29;8805;-72
2022/11/05 18:57:41;;;;;;;;;3.00;1.75;;;;;;;;4933265;28;8831;-69
2022/11/05 19:00:07;;;;;;;;;3.00;2.00;;;;;;;;4933568;28;8936;-69
2022/11/05 19:02:32;;;;;;;;;1.00;1.00;;;;;;;;4949617;28;8830;-71
2022/11/05 19:04:57;;;;;;;;;6.00;5.25;;;;;;;;4953522;28;9652;-69
2022/11/05 19:07:23;;;;;;;;;1.00;1.00;;;;;;;;4952309;28;9546;-68
2022/11/05 19:09:48;;;;;;;;;1.00;1.00;;;;;;;;4962193;28;8851;-68
2022/11/05 19:12:14;;;;;;;;;1.50;1.00;;;;;;;;4947590;28;8849;-69
2022/11/05 19:14:39;;;;;;;;;1.00;1.00;;;;;;;;4939746;28;8834;-70
2022/11/05 19:17:04;;;;;;;;;1.00;1.00;;;;;;;;4953262;28;8837;-70
2022/11/05 19:19:30;;;;;;;;;3.00;3.00;;;;;;;;4942257;28;8860;-69
2022/11/05 19:21:55;;;;;;;;;2.50;2.00;;;;;;;;4943360;28;8948;-69
2022/11/05 19:24:20;;;;;;;;;5.00;2.00;;;;;;;;4952399;28;8858;-70
2022/11/05 19:26:46;;;;;;;;;2.00;1.25;;;;;;;;4950294;28;8834;-70
2022/11/05 19:29:11;;;;;;;;;4.50;1.00;;;;;;;;4950717;28;8842;-72
2022/11/05 19:31:37;;;;;;;;;2.00;2.00;;;;;;;;4948020;28;8861;-73
2022/11/05 19:34:04;;;;;;;;;1.75;1.75;;;;;;;;4933775;28;8957;-71
2022/11/05 19:36:30;;;;;;;;;2.50;2.00;;;;;;;;4933845;29;9503;-71
2022/11/05 19:38:57;;;;;;;;;5.00;2.00;;;;;;;;4932457;28;11483;-70
2022/11/05 19:41:23;;;;;;;;;3.00;3.00;;;;;;;;4938343;28;11630;-70
2022/11/05 19:43:49;;;;;;;;;2.00;2.00;;;;;;;;4952827;28;11616;-69
2022/11/05 19:46:16;;;;;;;;;2.00;2.00;;;;;;;;4952669;28;8830;-69
2022/11/05 19:48:42;;;;;;;;;3.00;3.00;;;;;;;;4948038;28;9066;-69
2022/11/05 19:51:08;;;;;;;;;2.00;2.00;;;;;;;;4950276;28;11592;-68
2022/11/05 19:53:34;;;;;;;;;5.00;5.00;;;;;;;;4951123;28;11661;-68
2022/11/05 19:56:03;;;;;;;;;2.00;2.00;;;;;;;;4952943;28;11514;-68
2022/11/05 19:58:28;;;;;;;;;3.00;2.00;;;;;;;;4949609;28;11463;-69
2022/11/05 20:00:54;;;;;;;;;3.75;3.00;;;;;;;;4933484;28;11508;-69
2022/11/05 20:03:20;;;;;;;;;4.00;3.00;;;;;;;;4963559;28;8832;-68
2022/11/05 20:05:45;;;;;;;;;3.00;3.00;;;;;;;;4971455;28;9666;-69
2022/11/05 20:08:10;;;;;;;;;6.25;3.00;;;;;;;;4971795;28;8830;-70
2022/11/05 20:10:36;;;;;;;;;2.00;2.00;;;;;;;;4933790;28;8845;-69
2022/11/05 20:13:02;;;;;;;;;2.00;2.00;;;;;;;;4950073;28;8826;-69
2022/11/05 20:15:27;;;;;;;;;4.00;3.25;;;;;;;;4952402;28;8830;-69
2022/11/05 20:17:53;;;;;;;;;2.25;2.25;;;;;;;;4952452;28;8795;-69
2022/11/05 20:20:19;;;;;;;;;2.25;2.25;;;;;;;;4933930;28;8833;-69
2022/11/05 20:22:44;;;;;;;;;3.00;3.00;;;;;;;;4932738;28;11560;-69
2022/11/05 20:25:10;;;;;;;;;3.00;2.75;;;;;;;;4933272;29;8832;-69
2022/11/05 20:27:35;;;;;;;;;8.25;5.00;;;;;;;;4933045;29;8891;-70
2022/11/05 20:30:01;;;;;;;;;5.50;3.00;;;;;;;;4952462;28;8858;-70
2022/11/05 20:32:26;;;;;;;;;3.75;3.00;;;;;;;;4966315;28;8850;-70
2022/11/05 20:34:52;;;;;;;;;7.00;6.50;;;;;;;;4951476;28;8824;-70
2022/11/05 20:37:17;;;;;;;;;6.00;4.00;;;;;;;;4948738;28;8984;-73
2022/11/05 20:39:42;;;;;;;;;6.00;5.50;;;;;;;;4948532;28;8864;-70
2022/11/05 20:42:07;;;;;;;;;5.50;4.00;;;;;;;;4951725;28;8802;-70
2022/11/05 20:44:33;;;;;;;;;4.00;4.00;;;;;;;;4951900;28;8862;-71
2022/11/05 20:46:58;;;;;;;;;3.25;3.25;;;;;;;;4951895;28;8794;-71
2022/11/05 20:49:23;;;;;;;;;8.00;7.50;;;;;;;;4948242;28;9004;-70
2022/11/05 20:51:49;;;;;;;;;5.00;4.00;;;;;;;;4948098;28;8838;-70
2022/11/05 20:54:14;;;;;;;;;3.25;2.75;;;;;;;;4942193;28;9545;-70
2022/11/05 20:56:41;;;;;;;;;4.00;3.00;;;;;;;;4942886;28;8806;-70
2022/11/05 20:59:06;;;;;;;;;7.00;4.50;;;;;;;;4941629;28;8853;-71
2022/11/05 21:01:32;;;;;;;;;4.75;4.50;;;;;;;;4945457;28;11535;-70
2022/11/05 21:03:58;;;;;;;;;4.00;3.00;;;;;;;;4943100;28;8844;-69
2022/11/05 21:06:24;;;;;;;;;7.00;3.00;;;;;;;;4955145;28;11580;-69
2022/11/05 21:08:49;;;;;;;;;4.00;2.75;;;;;;;;4946289;28;11565;-68
2022/11/05 21:11:16;;;;;;;;;4.00;3.00;;;;;;;;4937676;28;8861;-70
2022/11/05 21:13:41;;;;;;;;;3.00;3.00;;;;;;;;4941886;28;11591;-69
2022/11/05 21:16:08;;;;;;;;;2.00;1.00;;;;;;;;4944897;28;11552;-68
2022/11/05 21:18:37;;;;;;;;;7.50;3.00;;;;;;;;4939893;28;9590;-73
2022/11/05 21:21:04;;;;;;;;;3.00;3.00;;;;;;;;4952922;28;11646;-70
2022/11/05 21:23:29;;;;;;;;;3.00;3.00;;;;;;;;4939248;28;11532;-69
2022/11/05 21:25:55;;;;;;;;;5.50;4.50;;;;;;;;4939014;28;11512;-68
2022/11/05 21:28:41;;;;;;;;;2.00;2.00;;;;;;;;4940133;28;8941;-70
2022/11/05 21:31:07;;;;;;;;;3.50;2.75;;;;;;;;4941683;28;8860;-69
2022/11/05 21:33:33;;;;;;;;;2.75;2.75;;;;;;;;4940308;28;11519;-69
2022/11/05 21:36:03;;;;;;;;;5.50;2.00;;;;;;;;4940357;29;11546;-69
2022/11/05 21:38:34;;;;;;;;;4.00;3.00;;;;;;;;4940030;28;8833;-68
2022/11/05 21:41:01;;;;;;;;;3.00;3.00;;;;;;;;4939152;28;11632;-69
2022/11/05 21:43:26;;;;;;;;;3.50;2.00;;;;;;;;4938988;28;12378;-69
2022/11/05 21:45:52;;;;;;;;;3.50;3.50;;;;;;;;4956916;28;11692;-69
2022/11/05 21:48:17;;;;;;;;;5.00;3.75;;;;;;;;4940260;28;8912;-69
2022/11/05 22:01:59;;;;;;;;;4.75;4.75;;;;;;;;4944995;28;12259;-69
2022/11/05 22:04:25;;;;;;;;;12.25;8.00;;;;;;;;4944986;28;11536;-70
2022/11/05 22:06:50;;;;;;;;;7.00;7.00;;;;;;;;4942698;28;11756;-69
2022/11/05 22:09:15;;;;;;;;;12.50;8.25;;;;;;;;4944052;28;8818;-69
2022/11/05 22:12:01;;;;;;;;;14.75;10.00;;;;;;;;4944011;28;8860;-69
2022/11/05 22:14:35;;;;;;;;;11.50;11.50;;;;;;;;4946773;28;8834;-69
2022/11/05 22:17:01;;;;;;;;;16.00;13.00;;;;;;;;4957785;28;11629;-69
2022/11/05 22:19:29;;;;;;;;;15.00;12.00;;;;;;;;4959037;28;11598;-68
2022/11/05 22:21:55;;;;;;;;;17.50;12.75;;;;;;;;4944065;28;8802;-69
2022/11/05 22:24:32;;;;;;;;;12.50;12.00;;;;;;;;4941823;28;11593;-69
2022/11/05 22:27:08;;;;;;;;;18.25;14.00;;;;;;;;4944702;28;8846;-69
2022/11/05 22:29:34;;;;;;;;;15.25;15.25;;;;;;;;4944187;28;11702;-69
2022/11/05 22:32:02;;;;;;;;;17.50;15.00;;;;;;;;4957565;28;11597;-69
2022/11/05 22:34:29;;;;;;;;;13.25;10.50;;;;;;;;4941237;28;11703;-69
2022/11/05 22:36:57;;;;;;;;;17.00;15.50;;;;;;;;4945050;28;11534;-70
2022/11/05 22:39:26;;;;;;;;;11.25;9.00;;;;;;;;4942774;28;11582;-69
2022/11/05 22:41:56;;;;;;;;;16.75;16.00;;;;;;;;4948980;28;11573;-70
2022/11/05 22:44:22;;;;;;;;;18.25;13.25;;;;;;;;4946124;28;11875;-69
2022/11/05 22:46:56;;;;;;;;;12.25;11.75;;;;;;;;4908473;28;12508;-69
2022/11/05 22:49:22;;;;;;;;;16.00;12.50;;;;;;;;4951527;28;8842;-68
2022/11/05 22:51:50;;;;;;;;;14.00;11.25;;;;;;;;4952271;28;11662;-69
2022/11/05 22:54:18;;;;;;;;;16.75;16.25;;;;;;;;4951273;28;8850;-69
2022/11/05 22:56:44;;;;;;;;;17.00;16.50;;;;;;;;4951975;28;11716;-68
2022/11/05 22:59:11;;;;;;;;;17.50;15.75;;;;;;;;4953592;28;11735;-68
2022/11/05 23:01:39;;;;;;;;;17.25;16.00;;;;;;;;4953936;28;8845;-68
2022/11/05 23:04:05;;;;;;;;;18.00;17.25;;;;;;;;4952365;28;12375;-68
2022/11/05 23:12:02;;;;;;;;;18.25;16.00;;;;;;;;4953806;28;11567;-68
2022/11/05 23:14:27;;;;;;;;;21.00;16.00;;;;;;;;4953952;28;11604;-69
2022/11/05 23:25:07;;;;;;;;;19.00;16.25;;;;;;;;4953715;28;11577;-69
